Time;durP1;ratioP1;P1;durP2;ratioP2;P2;SDS_P1;SDS_P2;PMS_P1;PMS_P2;Temp;Humidity;BMP_temperature;BMP_pressure;BME280_temperature;BME280_humidity;BME280_pressure;Samples;Min_cycle;Max_cycle;Signal;HPM_P1;HPM_P2
2023/11/26 00:02:18;;;;;;;9.38;3.38;;;3.90;99.90;;;;;;20754225;28;20119;-48
2023/11/26 00:12:19;;;;;;;9.88;3.53;;;3.80;99.90;;;;;;20764176;28;20485;-48
2023/11/26 00:22:20;;;;;;;7.82;2.78;;;3.80;99.90;;;;;;20771438;28;20053;-48
2023/11/26 00:32:20;;;;;;;8.05;2.78;;;3.80;99.90;;;;;;20761089;28;20396;-48
2023/11/26 00:42:21;;;;;;;6.95;2.70;;;3.70;99.90;;;;;;20753297;28;20502;-48
2023/11/26 00:52:21;;;;;;;4.97;2.20;;;3.60;99.90;;;;;;20739876;28;20038;-47
2023/11/26 01:02:23;;;;;;;7.68;2.30;;;3.50;99.90;;;;;;20756588;28;20045;-48
2023/11/26 01:12:25;;;;;;;8.52;2.35;;;3.50;99.90;;;;;;20746180;28;20529;-47
2023/11/26 01:22:26;;;;;;;9.60;2.28;;;3.40;99.90;;;;;;20749974;28;20049;-48
2023/11/26 01:32:28;;;;;;;7.68;1.90;;;3.30;99.90;;;;;;20741694;28;20076;-47
2023/11/26 01:42:28;;;;;;;7.47;1.83;;;3.20;99.90;;;;;;20750433;28;20065;-48
2023/11/26 01:52:29;;;;;;;6.28;2.13;;;3.20;99.90;;;;;;20746826;28;20423;-48
2023/11/26 02:02:32;;;;;;;6.83;2.00;;;3.10;99.90;;;;;;20768292;28;20124;-48
2023/11/26 02:12:33;;;;;;;6.68;1.70;;;3.00;99.90;;;;;;20761135;28;20533;-48
2023/11/26 02:22:33;;;;;;;5.57;1.53;;;2.90;99.90;;;;;;20754847;28;20036;-48
2023/11/26 02:32:34;;;;;;;6.25;1.65;;;2.90;99.90;;;;;;20762992;28;20464;-48
2023/11/26 02:42:36;;;;;;;5.35;1.80;;;2.90;99.90;;;;;;20761724;28;20040;-48
2023/11/26 02:52:36;;;;;;;7.60;1.60;;;2.90;99.90;;;;;;20765859;28;20644;-48
2023/11/26 03:02:37;;;;;;;4.75;1.00;;;2.90;99.90;;;;;;20767309;28;20049;-48
2023/11/26 03:22:58;;;;;;;6.00;0.93;;;3.50;99.90;;;;;;20760820;28;20650;-48
2023/11/26 03:33:01;;;;;;;4.55;1.02;;;3.60;99.90;;;;;;21733475;23;20056;-81
2023/11/26 03:43:07;;;;;;;2.15;0.77;;;3.60;99.90;;;;;;20697886;23;20111;-82
2023/11/26 03:53:13;;;;;;;3.67;0.90;;;3.60;99.90;;;;;;20689597;28;20064;-84
2023/11/26 04:03:22;;;;;;;4.00;0.73;;;3.60;99.90;;;;;;20705022;28;20077;-84
2023/11/26 04:13:34;;;;;;;5.45;0.70;;;3.80;99.90;;;;;;20684612;28;20034;-83
2023/11/26 04:23:41;;;;;;;5.88;0.80;;;3.90;99.90;;;;;;20618618;28;20054;-83
2023/11/26 04:33:42;;;;;;;5.05;0.77;;;4.10;99.90;;;;;;20614363;28;20061;-82
2023/11/26 04:43:43;;;;;;;5.60;0.70;;;4.10;99.90;;;;;;20549883;28;20051;-84
2023/11/26 04:53:43;;;;;;;8.73;1.67;;;4.30;99.90;;;;;;20570307;28;20436;-86
2023/11/26 05:03:44;;;;;;;4.10;1.20;;;4.50;99.90;;;;;;20549093;28;20031;-84
2023/11/26 05:13:45;;;;;;;3.55;0.70;;;4.60;99.90;;;;;;20532814;28;20030;-88
2023/11/26 05:23:46;;;;;;;3.47;0.50;;;4.70;99.90;;;;;;20533912;28;20129;-85
2023/11/26 05:33:56;;;;;;;4.50;0.73;;;4.60;99.90;;;;;;20528737;28;20047;-86
2023/11/26 05:43:59;;;;;;;6.13;0.88;;;4.80;99.90;;;;;;20449524;28;20515;-85
2023/11/26 05:54:00;;;;;;;2.70;0.50;;;4.80;99.90;;;;;;20446633;28;20331;-81
2023/11/26 06:04:01;;;;;;;2.60;0.47;;;4.80;99.90;;;;;;20446851;28;20039;-82
2023/11/26 06:14:02;;;;;;;6.10;0.95;;;4.90;99.90;;;;;;20423016;28;20047;-82
2023/11/26 06:24:03;;;;;;;5.78;0.90;;;4.90;99.90;;;;;;20425657;28;20054;-82
2023/11/26 06:34:04;;;;;;;5.07;0.82;;;4.90;99.90;;;;;;20443207;28;20043;-84
2023/11/26 06:44:04;;;;;;;2.50;0.50;;;4.90;99.90;;;;;;20441093;28;20086;-81
2023/11/26 06:54:08;;;;;;;3.08;0.50;;;4.90;99.90;;;;;;20474217;28;20043;-81
2023/11/26 07:04:10;;;;;;;4.03;0.60;;;4.90;99.90;;;;;;20458350;28;20043;-82
2023/11/26 07:14:12;;;;;;;3.10;0.50;;;4.80;99.90;;;;;;20459803;28;20130;-82
2023/11/26 07:24:13;;;;;;;4.13;0.60;;;4.80;99.90;;;;;;20431699;28;20233;-82
2023/11/26 07:34:17;;;;;;;4.07;0.52;;;4.80;99.90;;;;;;20457730;28;20043;-81
2023/11/26 07:44:18;;;;;;;2.20;0.75;;;4.80;99.90;;;;;;20453632;28;20051;-82
2023/11/26 07:54:21;;;;;;;4.85;2.13;;;4.80;99.90;;;;;;20448198;28;20044;-82
2023/11/26 08:04:26;;;;;;;7.78;1.13;;;5.00;99.90;;;;;;20451504;28;20114;-82
2023/11/26 08:14:27;;;;;;;6.80;1.13;;;5.20;99.90;;;;;;20451407;28;20036;-81
2023/11/26 08:24:29;;;;;;;8.35;1.95;;;5.20;99.90;;;;;;20467973;28;20133;-81
2023/11/26 08:34:36;;;;;;;9.80;2.10;;;5.30;99.90;;;;;;20438027;28;20047;-81
2023/11/26 08:44:41;;;;;;;10.25;1.75;;;5.50;99.90;;;;;;20418890;28;20358;-82
2023/11/26 08:54:43;;;;;;;9.53;1.70;;;5.60;99.90;;;;;;20450783;28;20073;-82
2023/11/26 09:04:49;;;;;;;6.35;1.70;;;5.80;99.90;;;;;;20525474;28;20039;-82
2023/11/26 09:14:50;;;;;;;8.35;3.08;;;6.10;99.90;;;;;;20527735;28;20119;-81
2023/11/26 09:24:50;;;;;;;5.05;1.40;;;6.10;99.90;;;;;;20523804;28;20039;-81
2023/11/26 09:34:54;;;;;;;5.45;1.50;;;6.20;99.90;;;;;;20514700;28;20039;-82
2023/11/26 09:44:55;;;;;;;6.03;2.05;;;6.40;99.90;;;;;;20524836;28;20051;-81
2023/11/26 09:54:56;;;;;;;7.88;1.80;;;6.50;99.90;;;;;;20510167;28;20054;-82
2023/11/26 10:04:57;;;;;;;4.15;1.75;;;6.60;99.90;;;;;;20515009;28;20051;-81
2023/11/26 10:15:09;;;;;;;5.57;1.70;;;6.80;99.90;;;;;;20518379;28;20093;-83
2023/11/26 10:25:13;;;;;;;6.68;2.00;;;6.90;99.90;;;;;;20534122;28;20522;-82
2023/11/26 10:35:14;;;;;;;7.70;1.60;;;7.10;99.90;;;;;;20469243;28;20054;-82
2023/11/26 10:45:17;;;;;;;17.88;10.65;;;7.10;99.90;;;;;;20498149;28;20046;-81
2023/11/26 10:55:24;;;;;;;7.50;2.05;;;7.10;99.90;;;;;;20582905;28;20074;-81
2023/11/26 11:05:25;;;;;;;9.20;4.10;;;7.30;99.90;;;;;;20636398;28;20067;-81
2023/11/26 11:15:26;;;;;;;6.55;1.80;;;7.40;99.90;;;;;;20561343;28;20466;-82
2023/11/26 11:25:28;;;;;;;8.07;2.40;;;7.60;99.90;;;;;;20534428;28;20098;-83
2023/11/26 11:35:45;;;;;;;6.85;2.05;;;7.70;99.90;;;;;;20529778;28;20150;-83
2023/11/26 11:45:46;;;;;;;7.90;3.40;;;7.50;99.90;;;;;;20527063;28;20108;-82
2023/11/26 11:55:59;;;;;;;17.67;10.32;;;7.60;99.90;;;;;;20527748;28;20431;-82
2023/11/26 12:06:11;;;;;;;12.43;5.90;;;7.70;99.90;;;;;;20540302;28;20046;-82
2023/11/26 12:16:12;;;;;;;10.65;5.50;;;7.70;99.90;;;;;;20507734;28;20050;-82
2023/11/26 12:26:12;;;;;;;12.15;4.63;;;7.70;99.90;;;;;;20475641;28;20059;-83
2023/11/26 12:36:14;;;;;;;9.15;4.72;;;7.80;99.90;;;;;;20534442;28;20049;-81
2023/11/26 12:46:16;;;;;;;15.90;5.18;;;7.80;99.90;;;;;;20468273;28;20258;-82
2023/11/26 12:56:29;;;;;;;50.00;16.10;;;7.90;99.90;;;;;;20512995;28;20043;-82
2023/11/26 13:06:32;;;;;;;8.32;3.05;;;8.00;99.90;;;;;;20528940;28;20050;-84
2023/11/26 13:16:34;;;;;;;50.03;24.00;;;8.00;99.90;;;;;;20513290;28;20031;-85
2023/11/26 13:26:34;;;;;;;28.73;15.25;;;8.00;99.90;;;;;;20518731;28;20551;-83
2023/11/26 13:36:35;;;;;;;14.48;7.10;;;8.00;99.90;;;;;;20524563;28;20069;-83
2023/11/26 13:46:36;;;;;;;10.65;4.07;;;8.00;99.90;;;;;;20526879;28;20050;-85
2023/11/26 13:56:42;;;;;;;8.43;4.15;;;8.00;99.90;;;;;;20532086;28;20043;-83
2023/11/26 14:06:43;;;;;;;4.60;1.85;;;8.00;99.90;;;;;;20554943;28;20106;-86
2023/11/26 14:16:43;;;;;;;7.30;3.47;;;7.80;99.90;;;;;;20536356;28;20121;-83
2023/11/26 14:26:44;;;;;;;5.47;2.83;;;7.60;99.90;;;;;;20522836;28;20540;-82
2023/11/26 14:36:46;;;;;;;9.77;5.15;;;7.50;99.90;;;;;;20531335;28;20467;-82
2023/11/26 14:46:47;;;;;;;32.08;15.80;;;7.30;99.90;;;;;;20535161;28;20440;-82
2023/11/26 14:56:48;;;;;;;12.70;6.85;;;7.20;99.90;;;;;;20542079;28;20038;-81
2023/11/26 15:06:48;;;;;;;26.27;15.40;;;7.40;99.90;;;;;;20534610;28;20039;-81
2023/11/26 15:16:49;;;;;;;15.55;9.88;;;7.20;99.90;;;;;;20527988;28;20582;-80
2023/11/26 15:26:50;;;;;;;18.38;9.55;;;7.10;99.90;;;;;;20505743;28;20078;-81
2023/11/26 15:36:50;;;;;;;15.07;8.32;;;7.10;99.90;;;;;;20525390;28;20054;-80
2023/11/26 15:46:51;;;;;;;51.00;20.50;;;7.10;99.90;;;;;;20527607;28;20050;-81
2023/11/26 15:56:52;;;;;;;14.65;4.95;;;7.00;99.90;;;;;;20528270;28;20045;-81
2023/11/26 16:06:53;;;;;;;12.27;5.40;;;7.00;99.90;;;;;;20524311;28;20035;-81
2023/11/26 16:16:54;;;;;;;11.57;5.20;;;7.10;99.90;;;;;;20505957;28;20043;-81
2023/11/26 16:26:54;;;;;;;8.43;4.45;;;7.00;99.90;;;;;;20508741;28;20484;-80
2023/11/26 16:36:55;;;;;;;14.70;5.30;;;7.00;99.90;;;;;;20440305;28;20556;-83
2023/11/26 16:46:56;;;;;;;14.52;6.55;;;6.90;99.90;;;;;;20484269;28;20626;-84
2023/11/26 16:56:56;;;;;;;13.30;5.53;;;6.90;99.90;;;;;;20491011;28;20198;-83
2023/11/26 17:07:37;;;;;;;11.93;5.47;;;6.80;99.90;;;;;;20486560;28;20032;-83
2023/11/26 17:17:38;;;;;;;10.73;5.43;;;6.90;99.90;;;;;;20449830;28;20110;-86
2023/11/26 17:27:38;;;;;;;10.90;4.90;;;6.80;99.90;;;;;;20459848;28;20046;-86
2023/11/26 17:37:59;;;;;;;11.95;4.65;;;6.80;99.90;;;;;;20501227;28;20047;-86
2023/11/26 17:48:00;;;;;;;12.77;4.43;;;6.80;99.90;;;;;;20525464;28;20489;-81
2023/11/26 17:58:01;;;;;;;10.95;3.30;;;6.70;99.90;;;;;;20524029;28;20556;-79
2023/11/26 18:08:02;;;;;;;10.43;3.80;;;6.70;99.90;;;;;;20528661;28;20450;-82
2023/11/26 18:18:03;;;;;;;8.45;2.90;;;6.80;99.90;;;;;;20507836;28;20702;-83
2023/11/26 18:28:03;;;;;;;18.03;4.73;;;6.80;99.90;;;;;;20507725;28;20043;-81
2023/11/26 18:38:04;;;;;;;11.48;4.00;;;6.90;95.00;;;;;;20460845;28;20578;-81
2023/11/26 18:48:07;;;;;;;15.68;4.38;;;6.90;75.40;;;;;;20472350;28;20043;-84
2023/11/26 18:58:09;;;;;;;15.90;4.90;;;6.80;72.30;;;;;;20469127;28;20066;-82
2023/11/26 19:08:10;;;;;;;17.95;5.93;;;6.80;81.00;;;;;;20449266;28;20517;-83
2023/11/26 19:18:10;;;;;;;17.10;7.00;;;6.80;74.50;;;;;;20451146;28;20587;-82
2023/11/26 19:28:11;;;;;;;15.57;7.50;;;6.80;85.90;;;;;;20447843;28;20043;-82
2023/11/26 19:38:12;;;;;;;18.63;8.30;;;6.70;86.20;;;;;;20443623;28;20051;-82
2023/11/26 19:48:12;;;;;;;19.50;10.60;;;6.70;76.30;;;;;;20440035;28;21411;-80
2023/11/26 19:58:15;;;;;;;23.80;10.90;;;6.60;80.00;;;;;;20444986;28;20027;-82
2023/11/26 20:08:15;;;;;;;20.90;11.32;;;6.70;74.80;;;;;;20434944;28;21075;-82
2023/11/26 20:18:17;;;;;;;22.70;11.45;;;6.70;81.90;;;;;;20543655;28;20027;-80
2023/11/26 20:28:22;;;;;;;19.35;11.75;;;6.70;62.90;;;;;;20575673;28;20051;-81
2023/11/26 20:38:22;;;;;;;25.92;11.73;;;6.70;74.90;;;;;;20543352;28;20019;-80
2023/11/26 20:48:23;;;;;;;25.63;12.80;;;6.60;72.10;;;;;;20569644;28;20047;-82
2023/11/26 20:58:27;;;;;;;20.67;11.52;;;6.60;68.90;;;;;;20497240;28;20126;-82
2023/11/26 21:08:30;;;;;;;26.38;12.68;;;6.70;59.70;;;;;;20459823;28;20042;-82
2023/11/26 21:18:30;;;;;;;20.35;11.57;;;6.60;74.50;;;;;;20454270;28;20085;-83
2023/11/26 21:28:31;;;;;;;21.10;12.57;;;6.50;81.50;;;;;;20452364;28;20042;-82
2023/11/26 21:38:32;;;;;;;26.35;13.27;;;6.40;96.70;;;;;;20444902;28;21265;-82
2023/11/26 21:48:32;;;;;;;23.05;13.45;;;6.50;98.40;;;;;;20448900;28;20125;-81
2023/11/26 21:58:35;;;;;;;21.13;12.80;;;6.40;99.90;;;;;;20463463;28;20089;-84
2023/11/26 22:08:35;;;;;;;23.30;13.18;;;6.50;99.50;;;;;;20462002;28;20590;-81
2023/11/26 22:18:37;;;;;;;26.25;13.82;;;6.50;99.90;;;;;;20483351;28;20117;-81
2023/11/26 22:28:41;;;;;;;21.40;13.52;;;6.60;99.90;;;;;;20480495;28;20035;-85
2023/11/26 22:38:41;;;;;;;25.63;15.43;;;6.60;94.10;;;;;;20554169;28;20043;-85
2023/11/26 22:48:45;;;;;;;25.58;15.73;;;6.60;97.90;;;;;;20549989;28;20158;-84
2023/11/26 22:58:46;;;;;;;30.75;16.38;;;6.60;99.90;;;;;;20543220;28;20035;-85
2023/11/26 23:08:50;;;;;;;27.02;16.83;;;6.60;99.90;;;;;;20553705;28;20105;-83
2023/11/26 23:18:59;;;;;;;30.40;17.75;;;6.60;99.90;;;;;;20556355;28;20136;-85
2023/11/26 23:28:59;;;;;;;26.88;16.73;;;6.70;99.90;;;;;;20550109;28;20514;-83
2023/11/26 23:39:00;;;;;;;25.52;17.67;;;6.50;99.90;;;;;;20547939;28;20142;-85
2023/11/26 23:49:01;;;;;;;28.13;17.33;;;6.50;99.90;;;;;;20537170;28;20158;-83
2023/11/26 23:59:02;;;;;;;27.73;18.60;;;6.60;99.90;;;;;;20535022;28;20039;-85
